sensor_id;sensor_type;location;lat;lon;timestamp;pressure;altitude;pressure_sealevel;temperature;humidity
71559;BME280;59382;43.852;25.952;2023-02-12T00:00:04;102295.28;;;3.41;52.19
71559;BME280;59382;43.852;25.952;2023-02-12T00:02:30;102301.59;;;3.40;51.89
71559;BME280;59382;43.852;25.952;2023-02-12T00:04:56;102302.59;;;3.39;51.64
71559;BME280;59382;43.852;25.952;2023-02-12T00:07:21;102303.66;;;3.36;51.68
71559;BME280;59382;43.852;25.952;2023-02-12T00:09:47;102277.16;;;3.24;51.66
71559;BME280;59382;43.852;25.952;2023-02-12T00:12:12;102297.63;;;3.34;51.49
71559;BME280;59382;43.852;25.952;2023-02-12T00:14:38;102261.91;;;3.15;51.65
71559;BME280;59382;43.852;25.952;2023-02-12T00:17:03;102289.28;;;3.28;52.14
71559;BME280;59382;43.852;25.952;2023-02-12T00:19:29;102287.84;;;3.24;51.85
71559;BME280;59382;43.852;25.952;2023-02-12T00:21:55;102273.06;;;3.20;52.26
71559;BME280;59382;43.852;25.952;2023-02-12T00:24:20;102267.75;;;3.09;52.28
71559;BME280;59382;43.852;25.952;2023-02-12T00:26:46;102282.19;;;3.06;52.62
71559;BME280;59382;43.852;25.952;2023-02-12T00:29:13;102292.63;;;2.98;52.71
71559;BME280;59382;43.852;25.952;2023-02-12T00:31:39;102298.06;;;3.08;52.74
71559;BME280;59382;43.852;25.952;2023-02-12T00:34:04;102297.34;;;3.06;52.77
71559;BME280;59382;43.852;25.952;2023-02-12T00:36:30;102297.72;;;3.01;52.94
71559;BME280;59382;43.852;25.952;2023-02-12T00:38:57;102288.16;;;2.99;52.84
71559;BME280;59382;43.852;25.952;2023-02-12T00:41:22;102286.94;;;2.92;52.94
71559;BME280;59382;43.852;25.952;2023-02-12T00:43:49;102294.44;;;2.98;52.72
71559;BME280;59382;43.852;25.952;2023-02-12T00:46:14;102272.41;;;2.85;52.87
71559;BME280;59382;43.852;25.952;2023-02-12T00:48:40;102280.16;;;2.88;53.26
71559;BME280;59382;43.852;25.952;2023-02-12T00:51:06;102251.13;;;2.74;53.34
71559;BME280;59382;43.852;25.952;2023-02-12T00:53:32;102265.03;;;2.88;53.74
71559;BME280;59382;43.852;25.952;2023-02-12T00:55:58;102270.34;;;2.88;53.28
71559;BME280;59382;43.852;25.952;2023-02-12T00:58:24;102252.31;;;2.81;53.23
71559;BME280;59382;43.852;25.952;2023-02-12T01:00:49;102241.41;;;2.73;53.23
71559;BME280;59382;43.852;25.952;2023-02-12T01:03:15;102250.88;;;2.77;53.63
71559;BME280;59382;43.852;25.952;2023-02-12T01:05:41;102250.63;;;2.80;53.39
71559;BME280;59382;43.852;25.952;2023-02-12T01:08:06;102243.09;;;2.85;53.93
71559;BME280;59382;43.852;25.952;2023-02-12T01:10:32;102218.66;;;2.80;54.31
71559;BME280;59382;43.852;25.952;2023-02-12T01:12:57;102216.81;;;2.80;53.74
71559;BME280;59382;43.852;25.952;2023-02-12T01:15:23;102236.28;;;2.92;53.27
71559;BME280;59382;43.852;25.952;2023-02-12T01:17:52;102237.25;;;2.91;54.17
71559;BME280;59382;43.852;25.952;2023-02-12T01:20:20;102223.44;;;2.86;53.93
71559;BME280;59382;43.852;25.952;2023-02-12T01:22:46;102233.97;;;2.98;53.57
71559;BME280;59382;43.852;25.952;2023-02-12T01:25:11;102213.03;;;2.83;54.29
71559;BME280;59382;43.852;25.952;2023-02-12T01:27:37;102226.34;;;2.94;54.41
71559;BME280;59382;43.852;25.952;2023-02-12T01:30:05;102227.06;;;2.96;54.23
71559;BME280;59382;43.852;25.952;2023-02-12T01:32:31;102223.56;;;2.95;54.04
71559;BME280;59382;43.852;25.952;2023-02-12T01:34:58;102238.44;;;2.98;54.37
71559;BME280;59382;43.852;25.952;2023-02-12T01:37:23;102232.44;;;2.85;54.09
71559;BME280;59382;43.852;25.952;2023-02-12T01:39:49;102255.78;;;2.92;54.21
71559;BME280;59382;43.852;25.952;2023-02-12T01:42:15;102240.22;;;2.77;54.34
71559;BME280;59382;43.852;25.952;2023-02-12T01:44:45;102257.66;;;2.81;54.69
71559;BME280;59382;43.852;25.952;2023-02-12T01:47:29;102270.84;;;2.82;54.84
71559;BME280;59382;43.852;25.952;2023-02-12T01:49:55;102261.66;;;2.75;55.00
71559;BME280;59382;43.852;25.952;2023-02-12T01:52:27;102260.31;;;2.70;55.03
71559;BME280;59382;43.852;25.952;2023-02-12T01:54:54;102269.41;;;2.67;54.87
71559;BME280;59382;43.852;25.952;2023-02-12T01:57:23;102246.66;;;2.63;55.20
71559;BME280;59382;43.852;25.952;2023-02-12T01:59:51;102242.66;;;2.58;55.17
71559;BME280;59382;43.852;25.952;2023-02-12T02:02:19;102240.47;;;2.52;55.42
71559;BME280;59382;43.852;25.952;2023-02-12T02:04:54;102259.38;;;2.60;55.63
71559;BME280;59382;43.852;25.952;2023-02-12T02:07:22;102226.19;;;2.53;55.78
71559;BME280;59382;43.852;25.952;2023-02-12T02:09:48;102243.75;;;2.66;55.92
71559;BME280;59382;43.852;25.952;2023-02-12T02:12:14;102230.56;;;2.54;55.65
71559;BME280;59382;43.852;25.952;2023-02-12T02:15:00;102251.38;;;2.60;56.70
71559;BME280;59382;43.852;25.952;2023-02-12T02:33:37;102252.44;;;2.68;56.12
71559;BME280;59382;43.852;25.952;2023-02-12T02:41:28;102262.78;;;2.62;57.10
71559;BME280;59382;43.852;25.952;2023-02-12T02:43:56;102260.81;;;2.64;56.66
71559;BME280;59382;43.852;25.952;2023-02-12T02:46:32;102260.56;;;2.67;56.50
71559;BME280;59382;43.852;25.952;2023-02-12T02:49:02;102265.16;;;2.76;56.58
71559;BME280;59382;43.852;25.952;2023-02-12T02:51:34;102265.16;;;2.76;56.61
71559;BME280;59382;43.852;25.952;2023-02-12T02:54:09;102256.09;;;2.67;55.79
71559;BME280;59382;43.852;25.952;2023-02-12T02:56:38;102273.16;;;2.76;56.67
71559;BME280;59382;43.852;25.952;2023-02-12T02:59:31;102253.56;;;2.66;56.54
71559;BME280;59382;43.852;25.952;2023-02-12T03:02:08;102260.31;;;2.70;56.44
71559;BME280;59382;43.852;25.952;2023-02-12T03:04:43;102270.97;;;2.81;56.14
71559;BME280;59382;43.852;25.952;2023-02-12T03:07:13;102277.00;;;2.83;56.28
71559;BME280;59382;43.852;25.952;2023-02-12T03:09:45;102269.88;;;2.83;56.21
71559;BME280;59382;43.852;25.952;2023-02-12T03:12:19;102294.69;;;2.95;56.26
71559;BME280;59382;43.852;25.952;2023-02-12T03:14:53;102285.50;;;2.88;56.21
71559;BME280;59382;43.852;25.952;2023-02-12T03:17:26;102294.69;;;2.95;56.00
71559;BME280;59382;43.852;25.952;2023-02-12T03:20:02;102302.69;;;3.06;55.97
71559;BME280;59382;43.852;25.952;2023-02-12T03:22:30;102305.81;;;3.11;56.18
71559;BME280;59382;43.852;25.952;2023-02-12T03:25:03;102297.56;;;3.14;55.86
71559;BME280;59382;43.852;25.952;2023-02-12T03:27:37;102296.72;;;3.13;55.49
71559;BME280;59382;43.852;25.952;2023-02-12T03:30:04;102291.28;;;3.04;56.33
71559;BME280;59382;43.852;25.952;2023-02-12T03:35:11;102279.91;;;2.91;56.05
71559;BME280;59382;43.852;25.952;2023-02-12T03:40:39;102301.97;;;2.93;56.62
71559;BME280;59382;43.852;25.952;2023-02-12T03:43:12;102294.47;;;2.87;55.96
71559;BME280;59382;43.852;25.952;2023-02-12T03:45:48;102312.59;;;3.04;55.96
71559;BME280;59382;43.852;25.952;2023-02-12T03:51:09;102304.97;;;3.10;55.99
71559;BME280;59382;43.852;25.952;2023-02-12T03:53:38;102301.94;;;3.15;55.88
71559;BME280;59382;43.852;25.952;2023-02-12T03:56:08;102286.44;;;2.98;56.17
71559;BME280;59382;43.852;25.952;2023-02-12T03:58:37;102292.63;;;2.98;55.68
71559;BME280;59382;43.852;25.952;2023-02-12T04:01:05;102285.63;;;2.97;55.97
71559;BME280;59382;43.852;25.952;2023-02-12T04:03:31;102305.09;;;3.09;55.83
71559;BME280;59382;43.852;25.952;2023-02-12T04:05:57;102292.13;;;3.04;56.57
71559;BME280;59382;43.852;25.952;2023-02-12T04:08:23;102303.38;;;3.19;55.50
71559;BME280;59382;43.852;25.952;2023-02-12T04:13:37;102287.84;;;3.13;56.33
71559;BME280;59382;43.852;25.952;2023-02-12T04:16:19;102308.94;;;3.27;55.72
71559;BME280;59382;43.852;25.952;2023-02-12T04:18:47;102309.44;;;3.21;55.86
71559;BME280;59382;43.852;25.952;2023-02-12T04:26:38;102322.66;;;3.22;55.82
71559;BME280;59382;43.852;25.952;2023-02-12T04:31:54;102321.47;;;3.15;56.13
71559;BME280;59382;43.852;25.952;2023-02-12T04:36:53;102311.16;;;3.00;56.40
71559;BME280;59382;43.852;25.952;2023-02-12T04:39:24;102330.56;;;3.02;56.30
71559;BME280;59382;43.852;25.952;2023-02-12T04:41:51;102331.28;;;3.04;56.24
71559;BME280;59382;43.852;25.952;2023-02-12T04:44:25;102308.25;;;3.03;56.84
71559;BME280;59382;43.852;25.952;2023-02-12T04:46:51;102333.19;;;3.13;55.56
71559;BME280;59382;43.852;25.952;2023-02-12T04:49:19;102320.13;;;3.10;56.04
71559;BME280;59382;43.852;25.952;2023-02-12T04:51:45;102340.94;;;3.27;55.87
71559;BME280;59382;43.852;25.952;2023-02-12T04:54:12;102324.44;;;3.22;56.05
71559;BME280;59382;43.852;25.952;2023-02-12T04:56:38;102323.25;;;3.26;55.75
71559;BME280;59382;43.852;25.952;2023-02-12T04:59:04;102331.94;;;3.39;55.75
71559;BME280;59382;43.852;25.952;2023-02-12T05:01:32;102339.44;;;3.45;56.05
71559;BME280;59382;43.852;25.952;2023-02-12T05:03:58;102318.88;;;3.25;55.61
71559;BME280;59382;43.852;25.952;2023-02-12T05:06:23;102316.38;;;3.12;55.97
71559;BME280;59382;43.852;25.952;2023-02-12T05:08:51;102333.19;;;3.13;55.64
71559;BME280;59382;43.852;25.952;2023-02-12T05:11:17;102355.50;;;3.23;55.95
71559;BME280;59382;43.852;25.952;2023-02-12T05:13:42;102352.72;;;3.24;55.27
71559;BME280;59382;43.852;25.952;2023-02-12T05:16:08;102348.72;;;3.19;55.90
71559;BME280;59382;43.852;25.952;2023-02-12T05:18:34;102330.66;;;3.11;55.73
71559;BME280;59382;43.852;25.952;2023-02-12T05:21:02;102372.47;;;3.33;55.85
71559;BME280;59382;43.852;25.952;2023-02-12T05:23:30;102363.38;;;3.24;55.54
71559;BME280;59382;43.852;25.952;2023-02-12T05:26:00;102385.06;;;3.31;55.67
71559;BME280;59382;43.852;25.952;2023-02-12T05:28:27;102371.84;;;3.29;56.11
71559;BME280;59382;43.852;25.952;2023-02-12T05:30:52;102387.97;;;3.39;55.69
71559;BME280;59382;43.852;25.952;2023-02-12T05:33:18;102369.06;;;3.31;55.94
71559;BME280;59382;43.852;25.952;2023-02-12T05:35:43;102382.50;;;3.40;55.39
71559;BME280;59382;43.852;25.952;2023-02-12T05:38:09;102401.75;;;3.55;55.48
71559;BME280;59382;43.852;25.952;2023-02-12T05:40:34;102404.91;;;3.60;55.22
71559;BME280;59382;43.852;25.952;2023-02-12T05:43:01;102392.75;;;3.56;55.60
71559;BME280;59382;43.852;25.952;2023-02-12T05:45:27;102413.84;;;3.70;55.19
71559;BME280;59382;43.852;25.952;2023-02-12T05:47:56;102409.25;;;3.72;55.50
71559;BME280;59382;43.852;25.952;2023-02-12T05:50:22;102414.97;;;3.67;55.66
71559;BME280;59382;43.852;25.952;2023-02-12T05:52:50;102417.03;;;3.53;55.54
71559;BME280;59382;43.852;25.952;2023-02-12T05:55:16;102445.19;;;3.57;55.54
71559;BME280;59382;43.852;25.952;2023-02-12T05:57:42;102434.03;;;3.41;55.42
71559;BME280;59382;43.852;25.952;2023-02-12T06:00:08;102455.75;;;3.47;55.27
71559;BME280;59382;43.852;25.952;2023-02-12T06:02:34;102439.63;;;3.38;55.20
71559;BME280;59382;43.852;25.952;2023-02-12T06:04:59;102419.38;;;3.35;55.70
71559;BME280;59382;43.852;25.952;2023-02-12T06:07:25;102446.25;;;3.54;55.24
71559;BME280;59382;43.852;25.952;2023-02-12T06:09:50;102442.97;;;3.62;54.81
71559;BME280;59382;43.852;25.952;2023-02-12T06:12:20;102450.28;;;3.60;55.23
71559;BME280;59382;43.852;25.952;2023-02-12T06:14:45;102433.56;;;3.36;55.27
71559;BME280;59382;43.852;25.952;2023-02-12T06:17:11;102464.63;;;3.48;55.35
71559;BME280;59382;43.852;25.952;2023-02-12T06:19:36;102459.97;;;3.50;55.78
71559;BME280;59382;43.852;25.952;2023-02-12T06:22:02;102467.50;;;3.56;55.45
71559;BME280;59382;43.852;25.952;2023-02-12T06:24:27;102458.91;;;3.52;55.87
71559;BME280;59382;43.852;25.952;2023-02-12T06:26:56;102479.16;;;3.66;55.58
71559;BME280;59382;43.852;25.952;2023-02-12T06:29:21;102460.22;;;3.58;55.41
71559;BME280;59382;43.852;25.952;2023-02-12T06:31:47;102481.56;;;3.69;55.15
71559;BME280;59382;43.852;25.952;2023-02-12T06:34:14;102472.81;;;3.67;55.44
71559;BME280;59382;43.852;25.952;2023-02-12T06:36:43;102472.69;;;3.68;55.60
71559;BME280;59382;43.852;25.952;2023-02-12T06:39:10;102501.41;;;3.87;54.92
71559;BME280;59382;43.852;25.952;2023-02-12T06:41:36;102475.81;;;3.84;55.07
71559;BME280;59382;43.852;25.952;2023-02-12T06:44:03;102493.75;;;4.04;55.17
71559;BME280;59382;43.852;25.952;2023-02-12T06:46:29;102465.25;;;3.94;54.70
71559;BME280;59382;43.852;25.952;2023-02-12T06:48:56;102467.16;;;4.03;55.10
71559;BME280;59382;43.852;25.952;2023-02-12T06:51:22;102499.41;;;4.11;54.58
71559;BME280;59382;43.852;25.952;2023-02-12T06:53:49;102468.59;;;3.96;54.87
71559;BME280;59382;43.852;25.952;2023-02-12T06:56:15;102493.34;;;4.09;55.04
71559;BME280;59382;43.852;25.952;2023-02-12T06:58:43;102498.56;;;4.11;55.15
71559;BME280;59382;43.852;25.952;2023-02-12T07:01:11;102498.19;;;4.15;55.17
71559;BME280;59382;43.852;25.952;2023-02-12T07:03:39;102491.63;;;4.19;55.03
71559;BME280;59382;43.852;25.952;2023-02-12T07:06:05;102480.94;;;4.08;55.03
71559;BME280;59382;43.852;25.952;2023-02-12T07:08:30;102495.28;;;4.18;54.53
71559;BME280;59382;43.852;25.952;2023-02-12T07:10:56;102496.44;;;4.25;56.44
71559;BME280;59382;43.852;25.952;2023-02-12T07:13:21;102499.41;;;4.63;55.50
71559;BME280;59382;43.852;25.952;2023-02-12T07:15:47;102499.94;;;4.98;55.84
71559;BME280;59382;43.852;25.952;2023-02-12T07:18:12;102510.53;;;5.09;55.24
71559;BME280;59382;43.852;25.952;2023-02-12T07:20:38;102505.72;;;5.03;54.93
71559;BME280;59382;43.852;25.952;2023-02-12T07:23:04;102496.06;;;4.91;54.53
71559;BME280;59382;43.852;25.952;2023-02-12T07:25:29;102498.78;;;5.21;56.60
71559;BME280;59382;43.852;25.952;2023-02-12T07:27:55;102518.94;;;5.55;54.63
71559;BME280;59382;43.852;25.952;2023-02-12T07:30:20;102520.38;;;5.59;54.22
71559;BME280;59382;43.852;25.952;2023-02-12T07:32:46;102516.25;;;5.55;54.47
71559;BME280;59382;43.852;25.952;2023-02-12T07:35:11;102524.81;;;5.49;53.90
71559;BME280;59382;43.852;25.952;2023-02-12T07:37:37;102518.59;;;5.39;53.81
71559;BME280;59382;43.852;25.952;2023-02-12T07:40:02;102515.97;;;5.28;53.60
71559;BME280;59382;43.852;25.952;2023-02-12T07:42:28;102508.50;;;5.22;56.15
71559;BME280;59382;43.852;25.952;2023-02-12T07:44:54;102501.78;;;5.67;56.28
71559;BME280;59382;43.852;25.952;2023-02-12T07:47:19;102508.94;;;6.07;55.30
71559;BME280;59382;43.852;25.952;2023-02-12T07:49:45;102505.28;;;6.07;53.94
71559;BME280;59382;43.852;25.952;2023-02-12T07:52:11;102538.84;;;6.12;54.03
71559;BME280;59382;43.852;25.952;2023-02-12T07:54:36;102542.94;;;5.96;53.58
71559;BME280;59382;43.852;25.952;2023-02-12T07:57:02;102524.06;;;5.68;54.03
71559;BME280;59382;43.852;25.952;2023-02-12T07:59:27;102546.84;;;5.53;53.86
71559;BME280;59382;43.852;25.952;2023-02-12T08:01:53;102524.53;;;5.22;54.14
71559;BME280;59382;43.852;25.952;2023-02-12T08:04:21;102535.78;;;5.16;54.71
71559;BME280;59382;43.852;25.952;2023-02-12T08:06:49;102520.56;;;5.07;54.80
71559;BME280;59382;43.852;25.952;2023-02-12T08:09:18;102550.91;;;5.27;54.09
71559;BME280;59382;43.852;25.952;2023-02-12T08:11:44;102551.69;;;5.18;54.93
71559;BME280;59382;43.852;25.952;2023-02-12T08:14:12;102555.38;;;5.17;54.20
71559;BME280;59382;43.852;25.952;2023-02-12T08:16:39;102556.50;;;5.14;54.42
71559;BME280;59382;43.852;25.952;2023-02-12T08:19:05;102563.53;;;5.15;54.60
71559;BME280;59382;43.852;25.952;2023-02-12T08:21:32;102562.69;;;5.15;54.59
71559;BME280;59382;43.852;25.952;2023-02-12T08:23:57;102578.06;;;5.22;54.28
71559;BME280;59382;43.852;25.952;2023-02-12T08:26:32;102562.28;;;5.19;54.04
71559;BME280;59382;43.852;25.952;2023-02-12T08:29:06;102572.72;;;5.22;54.05
71559;BME280;59382;43.852;25.952;2023-02-12T08:31:34;102569.91;;;5.24;53.75
71559;BME280;59382;43.852;25.952;2023-02-12T08:34:01;102595.50;;;5.37;53.64
71559;BME280;59382;43.852;25.952;2023-02-12T08:36:29;102593.53;;;5.39;53.50
71559;BME280;59382;43.852;25.952;2023-02-12T08:38:57;102596.69;;;5.44;53.87
71559;BME280;59382;43.852;25.952;2023-02-12T08:41:25;102591.84;;;5.38;53.67
71559;BME280;59382;43.852;25.952;2023-02-12T08:43:53;102597.47;;;5.35;53.91
71559;BME280;59382;43.852;25.952;2023-02-12T08:46:21;102620.06;;;5.42;53.72
71559;BME280;59382;43.852;25.952;2023-02-12T08:48:47;102608.63;;;5.40;53.47
71559;BME280;59382;43.852;25.952;2023-02-12T08:53:41;102618.94;;;5.45;53.10
71559;BME280;59382;43.852;25.952;2023-02-12T08:56:08;102644.34;;;5.50;53.41
71559;BME280;59382;43.852;25.952;2023-02-12T08:58:34;102642.06;;;5.46;53.14
71559;BME280;59382;43.852;25.952;2023-02-12T09:01:01;102610.41;;;5.30;53.82
71559;BME280;59382;43.852;25.952;2023-02-12T09:03:27;102632.97;;;5.37;53.71
71559;BME280;59382;43.852;25.952;2023-02-12T09:05:52;102639.56;;;5.33;53.88
71559;BME280;59382;43.852;25.952;2023-02-12T09:08:18;102632.13;;;5.16;53.27
71559;BME280;59382;43.852;25.952;2023-02-12T09:10:44;102630.81;;;5.11;53.72
71559;BME280;59382;43.852;25.952;2023-02-12T09:13:11;102626.13;;;5.03;54.17
71559;BME280;59382;43.852;25.952;2023-02-12T09:15:38;102643.38;;;5.10;54.38
71559;BME280;59382;43.852;25.952;2023-02-12T09:18:04;102629.66;;;5.04;54.42
71559;BME280;59382;43.852;25.952;2023-02-12T09:20:31;102659.59;;;5.18;53.88
71559;BME280;59382;43.852;25.952;2023-02-12T09:22:59;102667.19;;;5.13;53.63
71559;BME280;59382;43.852;25.952;2023-02-12T09:25:25;102655.16;;;5.08;54.51
71559;BME280;59382;43.852;25.952;2023-02-12T09:27:50;102647.34;;;4.95;54.28
71559;BME280;59382;43.852;25.952;2023-02-12T09:30:16;102654.25;;;4.98;54.55
71559;BME280;59382;43.852;25.952;2023-02-12T09:32:42;102655.81;;;5.00;54.38
71559;BME280;59382;43.852;25.952;2023-02-12T09:35:08;102663.69;;;5.02;53.79
71559;BME280;59382;43.852;25.952;2023-02-12T09:37:37;102661.91;;;4.91;53.89
71559;BME280;59382;43.852;25.952;2023-02-12T09:40:05;102647.75;;;4.80;55.17
71559;BME280;59382;43.852;25.952;2023-02-12T09:45:26;102652.88;;;5.03;54.22
71559;BME280;59382;43.852;25.952;2023-02-12T09:50:41;102664.31;;;5.05;54.42
71559;BME280;59382;43.852;25.952;2023-02-12T09:53:15;102664.81;;;4.99;53.90
71559;BME280;59382;43.852;25.952;2023-02-12T09:55:41;102669.00;;;4.92;54.48
71559;BME280;59382;43.852;25.952;2023-02-12T09:59:02;102657.19;;;4.95;54.50
71559;BME280;59382;43.852;25.952;2023-02-12T10:01:10;102667.47;;;5.10;54.74
71559;BME280;59382;43.852;25.952;2023-02-12T10:03:36;102668.63;;;5.17;54.33
71559;BME280;59382;43.852;25.952;2023-02-12T10:06:04;102674.56;;;5.21;54.09
71559;BME280;59382;43.852;25.952;2023-02-12T10:22:58;102668.53;;;5.08;53.76
71559;BME280;59382;43.852;25.952;2023-02-12T10:28:16;102684.09;;;5.14;54.49
71559;BME280;59382;43.852;25.952;2023-02-12T10:30:55;102683.81;;;5.17;54.55
71559;BME280;59382;43.852;25.952;2023-02-12T10:33:33;102677.63;;;5.16;54.16
71559;BME280;59382;43.852;25.952;2023-02-12T10:38:38;102675.94;;;5.15;54.31
71559;BME280;59382;43.852;25.952;2023-02-12T10:41:04;102687.09;;;5.20;54.41
71559;BME280;59382;43.852;25.952;2023-02-12T10:43:29;102682.97;;;5.16;53.91
71559;BME280;59382;43.852;25.952;2023-02-12T10:45:55;102691.59;;;5.20;54.76
71559;BME280;59382;43.852;25.952;2023-02-12T10:48:25;102700.50;;;5.20;54.16
71559;BME280;59382;43.852;25.952;2023-02-12T10:53:25;102701.78;;;5.05;54.28
71559;BME280;59382;43.852;25.952;2023-02-12T10:58:57;102697.03;;;5.09;54.55
71559;BME280;59382;43.852;25.952;2023-02-12T11:01:29;102700.75;;;5.17;54.44
71559;BME280;59382;43.852;25.952;2023-02-12T11:03:58;102706.78;;;5.19;54.06
71559;BME280;59382;43.852;25.952;2023-02-12T11:06:30;102721.13;;;5.29;53.73
71559;BME280;59382;43.852;25.952;2023-02-12T11:08:57;102718.91;;;5.34;54.00
71559;BME280;59382;43.852;25.952;2023-02-12T11:11:26;102716.09;;;5.36;54.01
71559;BME280;59382;43.852;25.952;2023-02-12T11:14:02;102715.25;;;5.35;53.90
71559;BME280;59382;43.852;25.952;2023-02-12T11:16:36;102726.88;;;5.45;53.58
71559;BME280;59382;43.852;25.952;2023-02-12T11:19:07;102717.03;;;5.46;54.04
71559;BME280;59382;43.852;25.952;2023-02-12T11:21:33;102720.75;;;5.54;53.79
71559;BME280;59382;43.852;25.952;2023-02-12T11:24:29;102726.09;;;5.54;53.94
71559;BME280;59382;43.852;25.952;2023-02-12T11:29:36;102709.78;;;5.57;53.73
71559;BME280;59382;43.852;25.952;2023-02-12T11:32:07;102714.66;;;5.73;53.48
71559;BME280;59382;43.852;25.952;2023-02-12T11:34:34;102723.78;;;5.81;54.07
71559;BME280;59382;43.852;25.952;2023-02-12T11:37:00;102719.13;;;5.83;53.64
71559;BME280;59382;43.852;25.952;2023-02-12T11:39:32;102723.53;;;5.84;53.84
71559;BME280;59382;43.852;25.952;2023-02-12T11:42:01;102705.66;;;5.74;53.81
71559;BME280;59382;43.852;25.952;2023-02-12T11:44:36;102724.34;;;5.85;53.78
71559;BME280;59382;43.852;25.952;2023-02-12T11:47:15;102723.00;;;5.90;53.67
71559;BME280;59382;43.852;25.952;2023-02-12T11:49:48;102716.19;;;5.86;53.49
71559;BME280;59382;43.852;25.952;2023-02-12T11:52:20;102709.41;;;5.82;53.45
71559;BME280;59382;43.852;25.952;2023-02-12T11:54:48;102709.63;;;5.79;53.70
71559;BME280;59382;43.852;25.952;2023-02-12T11:57:44;102714.22;;;5.88;53.79
71559;BME280;59382;43.852;25.952;2023-02-12T12:00:21;102716.84;;;5.99;53.27
71559;BME280;59382;43.852;25.952;2023-02-12T12:03:04;102728.72;;;6.07;53.41
71559;BME280;59382;43.852;25.952;2023-02-12T12:05:39;102719.41;;;6.11;53.21
71559;BME280;59382;43.852;25.952;2023-02-12T12:08:14;102722.97;;;6.21;53.36
71559;BME280;59382;43.852;25.952;2023-02-12T12:10:55;102709.84;;;6.18;53.21
71559;BME280;59382;43.852;25.952;2023-02-12T12:13:32;102717.81;;;6.29;53.50
71559;BME280;59382;43.852;25.952;2023-02-12T12:17:12;102714.56;;;6.35;52.71
71559;BME280;59382;43.852;25.952;2023-02-12T12:19:38;102704.53;;;6.27;52.81
71559;BME280;59382;43.852;25.952;2023-02-12T12:25:20;102722.56;;;6.16;53.62
71559;BME280;59382;43.852;25.952;2023-02-12T12:33:40;102704.06;;;6.22;52.92
71559;BME280;59382;43.852;25.952;2023-02-12T12:36:20;102719.50;;;6.30;53.15
71559;BME280;59382;43.852;25.952;2023-02-12T12:39:07;102728.78;;;6.26;53.27
71559;BME280;59382;43.852;25.952;2023-02-12T12:42:13;102708.69;;;6.11;52.85
71559;BME280;59382;43.852;25.952;2023-02-12T12:55:46;102739.38;;;6.27;52.62
71559;BME280;59382;43.852;25.952;2023-02-12T13:09:22;102763.19;;;6.21;52.36
71559;BME280;59382;43.852;25.952;2023-02-12T13:12:32;102766.72;;;6.21;52.93
71559;BME280;59382;43.852;25.952;2023-02-12T13:17:39;102779.28;;;6.21;52.88
71559;BME280;59382;43.852;25.952;2023-02-12T13:20:26;102779.53;;;6.18;52.86
71559;BME280;59382;43.852;25.952;2023-02-12T13:22:56;102785.63;;;6.20;52.96
71559;BME280;59382;43.852;25.952;2023-02-12T13:25:26;102793.41;;;6.23;53.31
71559;BME280;59382;43.852;25.952;2023-02-12T13:27:54;102770.81;;;6.16;52.91
71559;BME280;59382;43.852;25.952;2023-02-12T13:30:29;102789.91;;;6.32;52.79
71559;BME280;59382;43.852;25.952;2023-02-12T13:33:06;102797.09;;;6.31;52.91
71559;BME280;59382;43.852;25.952;2023-02-12T13:35:36;102789.72;;;6.24;52.79
71559;BME280;59382;43.852;25.952;2023-02-12T13:38:06;102775.63;;;6.22;52.79
71559;BME280;59382;43.852;25.952;2023-02-12T13:40:34;102770.25;;;6.22;52.94
71559;BME280;59382;43.852;25.952;2023-02-12T13:43:30;102799.13;;;6.39;52.70
71559;BME280;59382;43.852;25.952;2023-02-12T13:54:54;102807.28;;;6.37;52.29
71559;BME280;59382;43.852;25.952;2023-02-12T13:57:21;102807.44;;;6.36;52.32
71559;BME280;59382;43.852;25.952;2023-02-12T13:59:49;102808.44;;;6.35;52.54
71559;BME280;59382;43.852;25.952;2023-02-12T14:07:19;102809.00;;;6.38;52.66
71559;BME280;59382;43.852;25.952;2023-02-12T14:12:15;102808.69;;;6.32;52.05
71559;BME280;59382;43.852;25.952;2023-02-12T14:14:45;102815.75;;;6.33;52.38
71559;BME280;59382;43.852;25.952;2023-02-12T14:20:21;102818.88;;;6.38;52.08
71559;BME280;59382;43.852;25.952;2023-02-12T14:33:29;102837.00;;;6.45;52.44
71559;BME280;59382;43.852;25.952;2023-02-12T14:35:40;102837.97;;;6.44;52.17
71559;BME280;59382;43.852;25.952;2023-02-12T14:40:44;102852.22;;;6.45;52.07
71559;BME280;59382;43.852;25.952;2023-02-12T14:43:36;102857.59;;;6.45;52.69
71559;BME280;59382;43.852;25.952;2023-02-12T14:48:59;102855.38;;;6.50;52.76
71559;BME280;59382;43.852;25.952;2023-02-12T14:51:50;102849.66;;;6.43;52.53
71559;BME280;59382;43.852;25.952;2023-02-12T14:57:04;102847.31;;;6.50;52.36
71559;BME280;59382;43.852;25.952;2023-02-12T14:59:33;102859.03;;;6.49;52.48
71559;BME280;59382;43.852;25.952;2023-02-12T15:02:04;102857.28;;;6.38;52.28
71559;BME280;59382;43.852;25.952;2023-02-12T15:04:33;102872.25;;;6.41;52.54
71559;BME280;59382;43.852;25.952;2023-02-12T15:07:04;102882.63;;;6.34;52.37
71559;BME280;59382;43.852;25.952;2023-02-12T15:09:43;102874.56;;;6.25;52.47
71559;BME280;59382;43.852;25.952;2023-02-12T15:12:31;102868.47;;;6.23;52.58
71559;BME280;59382;43.852;25.952;2023-02-12T15:15:11;102878.66;;;6.29;52.39
71559;BME280;59382;43.852;25.952;2023-02-12T15:17:41;102897.91;;;6.34;52.59
71559;BME280;59382;43.852;25.952;2023-02-12T15:20:20;102899.25;;;6.28;52.23
71559;BME280;59382;43.852;25.952;2023-02-12T15:22:47;102904.56;;;6.19;52.40
71559;BME280;59382;43.852;25.952;2023-02-12T15:25:34;102887.84;;;6.06;52.27
71559;BME280;59382;43.852;25.952;2023-02-12T15:28:03;102898.81;;;6.03;52.42
71559;BME280;59382;43.852;25.952;2023-02-12T15:30:34;102905.63;;;5.95;52.29
71559;BME280;59382;43.852;25.952;2023-02-12T15:33:03;102896.06;;;5.82;52.31